sensor_id;sensor_type;location;lat;lon;timestamp;temperature;humidity
13405;DHT22;6773;51.192;7.024;2022-07-30T00:01:59;23.40;88.80
13405;DHT22;6773;51.192;7.024;2022-07-30T00:06:51;23.40;88.70
13405;DHT22;6773;51.192;7.024;2022-07-30T00:09:17;23.30;88.20
13405;DHT22;6773;51.192;7.024;2022-07-30T00:11:42;23.30;88.30
13405;DHT22;6773;51.192;7.024;2022-07-30T00:16:35;23.20;88.10
13405;DHT22;6773;51.192;7.024;2022-07-30T00:19:00;23.20;88.10
13405;DHT22;6773;51.192;7.024;2022-07-30T00:21:26;23.10;88.10
13405;DHT22;6773;51.192;7.024;2022-07-30T00:23:52;23.10;87.80
13405;DHT22;6773;51.192;7.024;2022-07-30T00:26:18;23.20;87.70
13405;DHT22;6773;51.192;7.024;2022-07-30T00:28:43;23.20;87.30
13405;DHT22;6773;51.192;7.024;2022-07-30T00:31:09;23.10;87.30
13405;DHT22;6773;51.192;7.024;2022-07-30T00:33:35;23.10;87.40
13405;DHT22;6773;51.192;7.024;2022-07-30T00:36:00;23.10;87.10
13405;DHT22;6773;51.192;7.024;2022-07-30T00:38:26;23.10;87.00
13405;DHT22;6773;51.192;7.024;2022-07-30T00:40:51;23.10;86.80
13405;DHT22;6773;51.192;7.024;2022-07-30T00:43:18;23.00;86.60
13405;DHT22;6773;51.192;7.024;2022-07-30T00:45:44;22.90;87.10
13405;DHT22;6773;51.192;7.024;2022-07-30T00:48:11;22.90;87.20
13405;DHT22;6773;51.192;7.024;2022-07-30T00:50:37;22.80;87.20
13405;DHT22;6773;51.192;7.024;2022-07-30T00:53:04;22.70;87.50
13405;DHT22;6773;51.192;7.024;2022-07-30T00:55:30;22.70;87.30
13405;DHT22;6773;51.192;7.024;2022-07-30T01:00:22;22.60;87.60
13405;DHT22;6773;51.192;7.024;2022-07-30T01:02:47;22.50;87.70
13405;DHT22;6773;51.192;7.024;2022-07-30T01:07:39;22.40;88.00
13405;DHT22;6773;51.192;7.024;2022-07-30T01:10:07;22.50;87.90
13405;DHT22;6773;51.192;7.024;2022-07-30T01:12:33;22.40;87.70
13405;DHT22;6773;51.192;7.024;2022-07-30T01:15:00;22.40;87.70
13405;DHT22;6773;51.192;7.024;2022-07-30T01:17:27;22.50;87.80
13405;DHT22;6773;51.192;7.024;2022-07-30T01:19:55;22.40;87.80
13405;DHT22;6773;51.192;7.024;2022-07-30T01:27:34;22.70;87.00
13405;DHT22;6773;51.192;7.024;2022-07-30T01:30:04;22.70;86.60
13405;DHT22;6773;51.192;7.024;2022-07-30T01:32:30;22.60;86.50
13405;DHT22;6773;51.192;7.024;2022-07-30T01:34:58;22.50;87.00
13405;DHT22;6773;51.192;7.024;2022-07-30T01:37:26;22.40;87.30
13405;DHT22;6773;51.192;7.024;2022-07-30T01:39:53;22.40;87.60
13405;DHT22;6773;51.192;7.024;2022-07-30T01:42:19;22.50;87.50
13405;DHT22;6773;51.192;7.024;2022-07-30T01:44:47;22.60;86.80
13405;DHT22;6773;51.192;7.024;2022-07-30T01:47:14;22.60;86.60
13405;DHT22;6773;51.192;7.024;2022-07-30T01:49:41;22.70;86.40
13405;DHT22;6773;51.192;7.024;2022-07-30T01:52:08;22.50;86.40
13405;DHT22;6773;51.192;7.024;2022-07-30T01:54:35;22.50;86.40
13405;DHT22;6773;51.192;7.024;2022-07-30T01:57:02;22.50;86.60
13405;DHT22;6773;51.192;7.024;2022-07-30T01:59:31;22.50;86.70
13405;DHT22;6773;51.192;7.024;2022-07-30T02:01:58;22.40;86.80
13405;DHT22;6773;51.192;7.024;2022-07-30T02:07:02;22.30;86.90
13405;DHT22;6773;51.192;7.024;2022-07-30T02:09:33;22.20;87.00
13405;DHT22;6773;51.192;7.024;2022-07-30T02:12:00;22.30;87.00
13405;DHT22;6773;51.192;7.024;2022-07-30T02:14:52;22.20;86.90
13405;DHT22;6773;51.192;7.024;2022-07-30T02:17:27;22.20;86.80
13405;DHT22;6773;51.192;7.024;2022-07-30T02:19:54;22.30;86.90
13405;DHT22;6773;51.192;7.024;2022-07-30T02:22:23;22.20;86.90
13405;DHT22;6773;51.192;7.024;2022-07-30T02:24:50;22.20;87.10
13405;DHT22;6773;51.192;7.024;2022-07-30T02:27:25;22.20;87.00
13405;DHT22;6773;51.192;7.024;2022-07-30T02:29:54;22.10;86.90
13405;DHT22;6773;51.192;7.024;2022-07-30T02:32:22;22.10;87.00
13405;DHT22;6773;51.192;7.024;2022-07-30T02:34:52;22.30;86.70
13405;DHT22;6773;51.192;7.024;2022-07-30T02:37:20;22.20;86.40
13405;DHT22;6773;51.192;7.024;2022-07-30T02:39:49;22.20;86.40
13405;DHT22;6773;51.192;7.024;2022-07-30T02:42:17;22.20;86.60
13405;DHT22;6773;51.192;7.024;2022-07-30T02:44:44;22.20;86.50
13405;DHT22;6773;51.192;7.024;2022-07-30T02:47:12;22.10;86.50
13405;DHT22;6773;51.192;7.024;2022-07-30T02:49:41;22.10;86.40
13405;DHT22;6773;51.192;7.024;2022-07-30T02:52:07;22.10;86.60
13405;DHT22;6773;51.192;7.024;2022-07-30T02:54:38;22.10;86.30
13405;DHT22;6773;51.192;7.024;2022-07-30T02:57:05;22.10;86.60
13405;DHT22;6773;51.192;7.024;2022-07-30T02:59:32;22.10;86.50
13405;DHT22;6773;51.192;7.024;2022-07-30T03:02:01;22.10;86.40
13405;DHT22;6773;51.192;7.024;2022-07-30T03:04:28;22.10;86.50
13405;DHT22;6773;51.192;7.024;2022-07-30T03:09:21;22.20;86.40
13405;DHT22;6773;51.192;7.024;2022-07-30T03:11:48;22.10;86.50
13405;DHT22;6773;51.192;7.024;2022-07-30T03:16:52;22.00;86.40
13405;DHT22;6773;51.192;7.024;2022-07-30T03:19:21;22.00;86.60
13405;DHT22;6773;51.192;7.024;2022-07-30T03:21:49;22.00;86.60
13405;DHT22;6773;51.192;7.024;2022-07-30T03:24:16;22.00;86.40
13405;DHT22;6773;51.192;7.024;2022-07-30T03:26:43;22.00;86.50
13405;DHT22;6773;51.192;7.024;2022-07-30T03:29:11;22.00;86.20
13405;DHT22;6773;51.192;7.024;2022-07-30T03:31:39;22.00;86.40
13405;DHT22;6773;51.192;7.024;2022-07-30T03:34:06;22.00;86.40
13405;DHT22;6773;51.192;7.024;2022-07-30T03:36:33;21.10;85.30
13405;DHT22;6773;51.192;7.024;2022-07-30T03:38:59;19.50;90.50
13405;DHT22;6773;51.192;7.024;2022-07-30T03:41:25;18.40;93.30
13405;DHT22;6773;51.192;7.024;2022-07-30T03:43:51;17.70;96.70
13405;DHT22;6773;51.192;7.024;2022-07-30T03:46:17;17.10;99.90
13405;DHT22;6773;51.192;7.024;2022-07-30T03:51:09;16.30;99.90
13405;DHT22;6773;51.192;7.024;2022-07-30T03:53:35;16.10;99.90
13405;DHT22;6773;51.192;7.024;2022-07-30T03:56:02;16.00;99.90
13405;DHT22;6773;51.192;7.024;2022-07-30T03:58:28;15.80;99.90
13405;DHT22;6773;51.192;7.024;2022-07-30T04:00:54;15.70;99.90
13405;DHT22;6773;51.192;7.024;2022-07-30T04:03:28;15.70;99.90
13405;DHT22;6773;51.192;7.024;2022-07-30T04:05:54;15.60;99.90
13405;DHT22;6773;51.192;7.024;2022-07-30T04:08:20;15.50;99.90
13405;DHT22;6773;51.192;7.024;2022-07-30T04:10:47;15.50;99.90
13405;DHT22;6773;51.192;7.024;2022-07-30T04:13:12;15.40;99.90
13405;DHT22;6773;51.192;7.024;2022-07-30T04:16:05;15.40;99.90
13405;DHT22;6773;51.192;7.024;2022-07-30T04:18:37;15.40;99.90
13405;DHT22;6773;51.192;7.024;2022-07-30T04:21:06;15.30;99.90
13405;DHT22;6773;51.192;7.024;2022-07-30T04:26:00;15.30;99.90
13405;DHT22;6773;51.192;7.024;2022-07-30T04:28:26;15.30;99.90
13405;DHT22;6773;51.192;7.024;2022-07-30T04:30:54;15.40;99.90
13405;DHT22;6773;51.192;7.024;2022-07-30T04:35:46;15.50;99.90
13405;DHT22;6773;51.192;7.024;2022-07-30T04:38:11;15.40;99.90
13405;DHT22;6773;51.192;7.024;2022-07-30T04:40:39;15.50;99.90
13405;DHT22;6773;51.192;7.024;2022-07-30T04:43:05;15.60;99.90
13405;DHT22;6773;51.192;7.024;2022-07-30T04:45:31;15.60;99.90
13405;DHT22;6773;51.192;7.024;2022-07-30T04:47:56;15.60;99.90
13405;DHT22;6773;51.192;7.024;2022-07-30T04:50:25;15.60;99.90
13405;DHT22;6773;51.192;7.024;2022-07-30T04:52:53;15.60;99.90
13405;DHT22;6773;51.192;7.024;2022-07-30T04:55:20;15.70;99.90
13405;DHT22;6773;51.192;7.024;2022-07-30T04:57:49;14.80;99.90
13405;DHT22;6773;51.192;7.024;2022-07-30T05:00:16;15.70;99.90
13405;DHT22;6773;51.192;7.024;2022-07-30T05:02:43;15.80;99.90
13405;DHT22;6773;51.192;7.024;2022-07-30T05:05:11;15.80;99.90
13405;DHT22;6773;51.192;7.024;2022-07-30T05:07:38;15.80;99.90
13405;DHT22;6773;51.192;7.024;2022-07-30T05:10:05;15.90;99.90
13405;DHT22;6773;51.192;7.024;2022-07-30T05:12:32;15.90;99.90
13405;DHT22;6773;51.192;7.024;2022-07-30T05:14:58;16.00;99.90
13405;DHT22;6773;51.192;7.024;2022-07-30T05:22:15;16.10;99.90
13405;DHT22;6773;51.192;7.024;2022-07-30T05:24:41;16.10;99.90
13405;DHT22;6773;51.192;7.024;2022-07-30T05:31:58;16.20;99.90
13405;DHT22;6773;51.192;7.024;2022-07-30T05:34:24;16.20;99.90
13405;DHT22;6773;51.192;7.024;2022-07-30T05:41:41;16.00;99.90
13405;DHT22;6773;51.192;7.024;2022-07-30T05:44:08;16.00;99.90
13405;DHT22;6773;51.192;7.024;2022-07-30T05:46:34;15.90;99.90
13405;DHT22;6773;51.192;7.024;2022-07-30T05:48:59;15.90;99.90
13405;DHT22;6773;51.192;7.024;2022-07-30T05:51:25;16.00;99.90
13405;DHT22;6773;51.192;7.024;2022-07-30T05:56:17;16.20;99.90
13405;DHT22;6773;51.192;7.024;2022-07-30T05:58:42;16.20;99.90
13405;DHT22;6773;51.192;7.024;2022-07-30T06:01:08;16.40;99.90
13405;DHT22;6773;51.192;7.024;2022-07-30T06:03:34;16.50;99.90
13405;DHT22;6773;51.192;7.024;2022-07-30T06:06:02;16.50;99.90
13405;DHT22;6773;51.192;7.024;2022-07-30T06:08:28;16.70;99.90
13405;DHT22;6773;51.192;7.024;2022-07-30T06:10:53;16.80;99.90
13405;DHT22;6773;51.192;7.024;2022-07-30T06:18:11;17.00;99.90
13405;DHT22;6773;51.192;7.024;2022-07-30T06:23:02;17.00;99.90
13405;DHT22;6773;51.192;7.024;2022-07-30T06:25:28;17.00;99.90
13405;DHT22;6773;51.192;7.024;2022-07-30T06:27:54;17.10;99.90
13405;DHT22;6773;51.192;7.024;2022-07-30T06:35:11;17.00;99.90
13405;DHT22;6773;51.192;7.024;2022-07-30T06:40:04;17.00;99.90
13405;DHT22;6773;51.192;7.024;2022-07-30T06:44:56;17.30;99.90
13405;DHT22;6773;51.192;7.024;2022-07-30T06:47:22;17.50;99.90
13405;DHT22;6773;51.192;7.024;2022-07-30T06:49:53;17.50;99.90
13405;DHT22;6773;51.192;7.024;2022-07-30T06:52:18;17.40;99.90
13405;DHT22;6773;51.192;7.024;2022-07-30T06:54:44;17.30;99.90
13405;DHT22;6773;51.192;7.024;2022-07-30T06:57:11;17.30;99.90
13405;DHT22;6773;51.192;7.024;2022-07-30T06:59:37;17.30;99.90
13405;DHT22;6773;51.192;7.024;2022-07-30T07:14:14;17.50;99.90
13405;DHT22;6773;51.192;7.024;2022-07-30T07:23:57;18.10;99.90
13405;DHT22;6773;51.192;7.024;2022-07-30T07:26:25;18.10;99.90
13405;DHT22;6773;51.192;7.024;2022-07-30T07:28:50;18.00;99.90
13405;DHT22;6773;51.192;7.024;2022-07-30T07:33:42;17.80;99.90
13405;DHT22;6773;51.192;7.024;2022-07-30T07:36:08;17.70;99.90
13405;DHT22;6773;51.192;7.024;2022-07-30T07:38:33;17.60;99.90
13405;DHT22;6773;51.192;7.024;2022-07-30T07:43:25;17.30;99.90
13405;DHT22;6773;51.192;7.024;2022-07-30T07:45:51;17.40;99.90
13405;DHT22;6773;51.192;7.024;2022-07-30T07:48:17;17.50;99.90
13405;DHT22;6773;51.192;7.024;2022-07-30T07:50:43;17.60;99.90
13405;DHT22;6773;51.192;7.024;2022-07-30T07:53:08;17.80;99.90
13405;DHT22;6773;51.192;7.024;2022-07-30T07:58:01;18.60;99.90
13405;DHT22;6773;51.192;7.024;2022-07-30T08:00:26;18.90;99.90
13405;DHT22;6773;51.192;7.024;2022-07-30T08:07:44;19.40;99.90
13405;DHT22;6773;51.192;7.024;2022-07-30T08:10:10;19.50;99.90
13405;DHT22;6773;51.192;7.024;2022-07-30T08:12:38;19.40;99.90
13405;DHT22;6773;51.192;7.024;2022-07-30T08:15:04;19.20;99.90
13405;DHT22;6773;51.192;7.024;2022-07-30T08:17:30;19.00;99.90
13405;DHT22;6773;51.192;7.024;2022-07-30T08:19:59;19.10;99.90
13405;DHT22;6773;51.192;7.024;2022-07-30T08:24:51;19.40;99.90
13405;DHT22;6773;51.192;7.024;2022-07-30T08:27:17;19.40;99.90
13405;DHT22;6773;51.192;7.024;2022-07-30T08:29:42;19.60;99.90
13405;DHT22;6773;51.192;7.024;2022-07-30T08:32:08;19.80;99.90
13405;DHT22;6773;51.192;7.024;2022-07-30T08:34:34;19.80;99.90
13405;DHT22;6773;51.192;7.024;2022-07-30T08:39:25;19.90;99.90
13405;DHT22;6773;51.192;7.024;2022-07-30T08:44:17;20.20;99.90
13405;DHT22;6773;51.192;7.024;2022-07-30T08:46:45;20.30;99.90
13405;DHT22;6773;51.192;7.024;2022-07-30T08:49:11;20.10;99.90
13405;DHT22;6773;51.192;7.024;2022-07-30T08:51:38;20.50;99.90
13405;DHT22;6773;51.192;7.024;2022-07-30T08:54:04;20.60;99.90
13405;DHT22;6773;51.192;7.024;2022-07-30T08:56:32;20.60;99.90
13405;DHT22;6773;51.192;7.024;2022-07-30T08:58:59;21.00;99.90
13405;DHT22;6773;51.192;7.024;2022-07-30T09:01:25;21.20;99.90
13405;DHT22;6773;51.192;7.024;2022-07-30T09:06:16;21.80;99.90
13405;DHT22;6773;51.192;7.024;2022-07-30T09:08:42;21.60;98.60
13405;DHT22;6773;51.192;7.024;2022-07-30T09:11:07;21.40;99.90
13405;DHT22;6773;51.192;7.024;2022-07-30T09:13:36;21.70;99.90
13405;DHT22;6773;51.192;7.024;2022-07-30T09:16:06;21.80;99.90
13405;DHT22;6773;51.192;7.024;2022-07-30T09:18:38;22.10;98.40
13405;DHT22;6773;51.192;7.024;2022-07-30T09:21:18;22.40;98.00
13405;DHT22;6773;51.192;7.024;2022-07-30T09:26:28;22.40;96.80
13405;DHT22;6773;51.192;7.024;2022-07-30T09:28:54;22.30;96.80
13405;DHT22;6773;51.192;7.024;2022-07-30T09:31:22;22.50;96.50
13405;DHT22;6773;51.192;7.024;2022-07-30T09:33:48;22.20;96.00
13405;DHT22;6773;51.192;7.024;2022-07-30T09:36:15;21.90;96.50
13405;DHT22;6773;51.192;7.024;2022-07-30T09:41:14;22.50;95.60
13405;DHT22;6773;51.192;7.024;2022-07-30T09:43:46;22.70;95.40
13405;DHT22;6773;51.192;7.024;2022-07-30T09:46:12;23.00;94.50
13405;DHT22;6773;51.192;7.024;2022-07-30T09:48:38;23.30;93.60
13405;DHT22;6773;51.192;7.024;2022-07-30T09:51:04;22.70;93.60
13405;DHT22;6773;51.192;7.024;2022-07-30T09:53:30;22.20;94.30
13405;DHT22;6773;51.192;7.024;2022-07-30T09:55:57;22.30;94.20
13405;DHT22;6773;51.192;7.024;2022-07-30T09:58:37;22.20;94.50
13405;DHT22;6773;51.192;7.024;2022-07-30T10:03:30;23.20;92.30
13405;DHT22;6773;51.192;7.024;2022-07-30T10:06:00;22.90;93.00
13405;DHT22;6773;51.192;7.024;2022-07-30T10:11:05;22.80;92.70
13405;DHT22;6773;51.192;7.024;2022-07-30T10:13:31;23.00;92.60
13405;DHT22;6773;51.192;7.024;2022-07-30T10:15:58;23.20;92.20
13405;DHT22;6773;51.192;7.024;2022-07-30T10:18:25;23.00;92.10
13405;DHT22;6773;51.192;7.024;2022-07-30T10:20:51;23.30;91.90
13405;DHT22;6773;51.192;7.024;2022-07-30T10:23:18;23.30;91.40
13405;DHT22;6773;51.192;7.024;2022-07-30T10:25:45;23.70;88.60
13405;DHT22;6773;51.192;7.024;2022-07-30T10:28:12;23.70;85.40
13405;DHT22;6773;51.192;7.024;2022-07-30T10:30:38;24.20;86.60
13405;DHT22;6773;51.192;7.024;2022-07-30T10:33:07;24.40;86.10
13405;DHT22;6773;51.192;7.024;2022-07-30T10:35:33;24.70;84.40
13405;DHT22;6773;51.192;7.024;2022-07-30T10:37:59;24.50;82.60
13405;DHT22;6773;51.192;7.024;2022-07-30T10:40:39;24.40;85.00
13405;DHT22;6773;51.192;7.024;2022-07-30T10:43:30;24.10;86.00
13405;DHT22;6773;51.192;7.024;2022-07-30T10:46:11;23.70;87.50
13405;DHT22;6773;51.192;7.024;2022-07-30T10:48:40;23.80;86.20
13405;DHT22;6773;51.192;7.024;2022-07-30T10:51:06;24.30;85.60
13405;DHT22;6773;51.192;7.024;2022-07-30T10:53:32;24.90;82.70
13405;DHT22;6773;51.192;7.024;2022-07-30T10:56:14;24.90;83.20
13405;DHT22;6773;51.192;7.024;2022-07-30T10:59:01;25.40;79.40
13405;DHT22;6773;51.192;7.024;2022-07-30T11:06:45;24.80;76.90
13405;DHT22;6773;51.192;7.024;2022-07-30T11:09:40;24.40;79.60
13405;DHT22;6773;51.192;7.024;2022-07-30T11:12:08;24.70;81.30
13405;DHT22;6773;51.192;7.024;2022-07-30T11:17:18;24.30;79.90
13405;DHT22;6773;51.192;7.024;2022-07-30T11:22:33;26.10;79.90
13405;DHT22;6773;51.192;7.024;2022-07-30T11:25:04;26.60;73.60
13405;DHT22;6773;51.192;7.024;2022-07-30T11:27:39;26.50;74.10
13405;DHT22;6773;51.192;7.024;2022-07-30T11:32:49;27.30;75.00
13405;DHT22;6773;51.192;7.024;2022-07-30T11:38:10;27.80;68.40
13405;DHT22;6773;51.192;7.024;2022-07-30T11:43:27;28.40;64.70
13405;DHT22;6773;51.192;7.024;2022-07-30T11:46:19;28.00;68.80
13405;DHT22;6773;51.192;7.024;2022-07-30T11:51:23;27.30;64.60
13405;DHT22;6773;51.192;7.024;2022-07-30T11:54:05;27.30;64.70
13405;DHT22;6773;51.192;7.024;2022-07-30T11:56:32;27.40;65.60
13405;DHT22;6773;51.192;7.024;2022-07-30T11:59:05;27.50;65.30
13405;DHT22;6773;51.192;7.024;2022-07-30T12:01:32;27.60;63.30
13405;DHT22;6773;51.192;7.024;2022-07-30T12:04:02;27.20;63.50
13405;DHT22;6773;51.192;7.024;2022-07-30T12:06:28;27.40;63.50
13405;DHT22;6773;51.192;7.024;2022-07-30T12:08:57;27.30;65.00
13405;DHT22;6773;51.192;7.024;2022-07-30T12:11:23;27.60;63.50
13405;DHT22;6773;51.192;7.024;2022-07-30T12:13:56;27.90;63.60
13405;DHT22;6773;51.192;7.024;2022-07-30T12:16:24;28.00;60.60
13405;DHT22;6773;51.192;7.024;2022-07-30T12:18:50;27.40;62.60
13405;DHT22;6773;51.192;7.024;2022-07-30T12:21:16;27.50;62.10
13405;DHT22;6773;51.192;7.024;2022-07-30T12:23:59;27.70;63.90
13405;DHT22;6773;51.192;7.024;2022-07-30T12:26:30;29.00;61.60
13405;DHT22;6773;51.192;7.024;2022-07-30T12:28:59;29.00;60.30
13405;DHT22;6773;51.192;7.024;2022-07-30T12:31:25;28.10;56.90
13405;DHT22;6773;51.192;7.024;2022-07-30T12:33:51;28.00;57.80
13405;DHT22;6773;51.192;7.024;2022-07-30T12:36:27;28.00;59.80
13405;DHT22;6773;51.192;7.024;2022-07-30T12:38:54;28.50;59.70
13405;DHT22;6773;51.192;7.024;2022-07-30T12:41:21;27.60;56.60
13405;DHT22;6773;51.192;7.024;2022-07-30T12:43:49;27.60;57.30
13405;DHT22;6773;51.192;7.024;2022-07-30T12:46:26;27.20;60.30
13405;DHT22;6773;51.192;7.024;2022-07-30T12:49:00;27.10;58.90
13405;DHT22;6773;51.192;7.024;2022-07-30T12:51:32;27.10;59.40
13405;DHT22;6773;51.192;7.024;2022-07-30T12:53:58;26.80;60.30
13405;DHT22;6773;51.192;7.024;2022-07-30T12:56:27;27.20;63.80
13405;DHT22;6773;51.192;7.024;2022-07-30T12:58:54;27.90;62.10
13405;DHT22;6773;51.192;7.024;2022-07-30T13:01:41;28.40;62.30
13405;DHT22;6773;51.192;7.024;2022-07-30T13:04:08;28.50;60.90
13405;DHT22;6773;51.192;7.024;2022-07-30T13:06:34;28.50;61.20
13405;DHT22;6773;51.192;7.024;2022-07-30T13:09:00;27.70;59.60
13405;DHT22;6773;51.192;7.024;2022-07-30T13:14:01;28.10;64.10
13405;DHT22;6773;51.192;7.024;2022-07-30T13:16:30;28.80;60.30
13405;DHT22;6773;51.192;7.024;2022-07-30T13:18:56;28.80;61.30
13405;DHT22;6773;51.192;7.024;2022-07-30T13:21:22;29.30;60.50
13405;DHT22;6773;51.192;7.024;2022-07-30T13:23:48;29.70;59.10
13405;DHT22;6773;51.192;7.024;2022-07-30T13:26:13;29.70;58.50
13405;DHT22;6773;51.192;7.024;2022-07-30T13:28:39;29.60;57.50
13405;DHT22;6773;51.192;7.024;2022-07-30T13:31:05;29.60;58.90
13405;DHT22;6773;51.192;7.024;2022-07-30T13:33:34;29.00;57.40
13405;DHT22;6773;51.192;7.024;2022-07-30T13:36:00;29.30;59.40
13405;DHT22;6773;51.192;7.024;2022-07-30T13:38:27;29.80;57.70
13405;DHT22;6773;51.192;7.024;2022-07-30T13:40:53;30.10;59.80
13405;DHT22;6773;51.192;7.024;2022-07-30T13:43:19;29.70;58.00
13405;DHT22;6773;51.192;7.024;2022-07-30T13:45:44;30.00;58.90
13405;DHT22;6773;51.192;7.024;2022-07-30T13:48:11;30.40;56.70
13405;DHT22;6773;51.192;7.024;2022-07-30T13:50:37;30.70;57.00
13405;DHT22;6773;51.192;7.024;2022-07-30T13:53:03;30.50;56.40
13405;DHT22;6773;51.192;7.024;2022-07-30T13:55:29;30.60;58.00
13405;DHT22;6773;51.192;7.024;2022-07-30T13:57:55;30.70;57.00
13405;DHT22;6773;51.192;7.024;2022-07-30T14:00:21;30.30;56.10
13405;DHT22;6773;51.192;7.024;2022-07-30T14:02:47;30.50;59.00
13405;DHT22;6773;51.192;7.024;2022-07-30T14:05:13;29.50;57.40
13405;DHT22;6773;51.192;7.024;2022-07-30T14:07:38;29.50;58.30
13405;DHT22;6773;51.192;7.024;2022-07-30T14:10:05;29.90;60.00
13405;DHT22;6773;51.192;7.024;2022-07-30T14:12:32;30.40;58.20
13405;DHT22;6773;51.192;7.024;2022-07-30T14:14:58;30.60;57.00
13405;DHT22;6773;51.192;7.024;2022-07-30T14:17:23;30.40;57.80
13405;DHT22;6773;51.192;7.024;2022-07-30T14:19:49;30.20;57.30
13405;DHT22;6773;51.192;7.024;2022-07-30T14:22:21;30.40;58.10
13405;DHT22;6773;51.192;7.024;2022-07-30T14:24:47;30.40;57.80
13405;DHT22;6773;51.192;7.024;2022-07-30T14:27:13;30.50;58.50
13405;DHT22;6773;51.192;7.024;2022-07-30T14:29:39;30.20;57.70
13405;DHT22;6773;51.192;7.024;2022-07-30T14:32:05;30.30;58.20
13405;DHT22;6773;51.192;7.024;2022-07-30T14:34:31;30.60;57.00
13405;DHT22;6773;51.192;7.024;2022-07-30T14:36:57;30.10;56.60
13405;DHT22;6773;51.192;7.024;2022-07-30T14:39:22;30.00;56.70
13405;DHT22;6773;51.192;7.024;2022-07-30T14:41:49;30.10;56.80
13405;DHT22;6773;51.192;7.024;2022-07-30T14:44:14;30.20;56.10
13405;DHT22;6773;51.192;7.024;2022-07-30T14:46:40;30.10;59.70
13405;DHT22;6773;51.192;7.024;2022-07-30T14:49:06;30.20;58.20
13405;DHT22;6773;51.192;7.024;2022-07-30T14:51:33;30.40;56.50
13405;DHT22;6773;51.192;7.024;2022-07-30T14:53:59;30.60;58.10
13405;DHT22;6773;51.192;7.024;2022-07-30T14:56:24;30.80;56.20
13405;DHT22;6773;51.192;7.024;2022-07-30T14:58:50;30.90;56.40
13405;DHT22;6773;51.192;7.024;2022-07-30T15:01:16;30.70;55.00
13405;DHT22;6773;51.192;7.024;2022-07-30T15:03:43;30.80;57.30
13405;DHT22;6773;51.192;7.024;2022-07-30T15:06:09;31.00;56.20
13405;DHT22;6773;51.192;7.024;2022-07-30T15:08:37;31.40;55.70
13405;DHT22;6773;51.192;7.024;2022-07-30T15:11:03;31.40;56.00
13405;DHT22;6773;51.192;7.024;2022-07-30T15:13:29;31.50;55.30
13405;DHT22;6773;51.192;7.024;2022-07-30T15:15:54;31.50;55.40
13405;DHT22;6773;51.192;7.024;2022-07-30T15:18:20;31.40;53.90
13405;DHT22;6773;51.192;7.024;2022-07-30T15:20:46;31.20;56.10
13405;DHT22;6773;51.192;7.024;2022-07-30T15:23:11;31.60;55.20
13405;DHT22;6773;51.192;7.024;2022-07-30T15:25:39;31.60;55.30
13405;DHT22;6773;51.192;7.024;2022-07-30T15:28:05;31.40;55.50
13405;DHT22;6773;51.192;7.024;2022-07-30T15:30:30;31.50;56.10
13405;DHT22;6773;51.192;7.024;2022-07-30T15:32:56;30.90;54.80
13405;DHT22;6773;51.192;7.024;2022-07-30T15:35:21;30.90;55.40
13405;DHT22;6773;51.192;7.024;2022-07-30T15:37:47;30.50;54.60
13405;DHT22;6773;51.192;7.024;2022-07-30T15:40:13;29.70;54.70
13405;DHT22;6773;51.192;7.024;2022-07-30T15:42:39;29.70;55.30
13405;DHT22;6773;51.192;7.024;2022-07-30T15:45:05;29.70;56.60
13405;DHT22;6773;51.192;7.024;2022-07-30T15:47:32;29.80;55.20
13405;DHT22;6773;51.192;7.024;2022-07-30T15:49:58;29.70;54.10
13405;DHT22;6773;51.192;7.024;2022-07-30T15:52:24;29.60;55.70
13405;DHT22;6773;51.192;7.024;2022-07-30T15:54:49;29.50;55.70
13405;DHT22;6773;51.192;7.024;2022-07-30T15:57:15;29.40;56.90
13405;DHT22;6773;51.192;7.024;2022-07-30T15:59:41;29.30;57.50
13405;DHT22;6773;51.192;7.024;2022-07-30T16:02:07;29.30;57.40
13405;DHT22;6773;51.192;7.024;2022-07-30T16:04:32;29.20;58.00
13405;DHT22;6773;51.192;7.024;2022-07-30T16:07:01;28.90;58.20
13405;DHT22;6773;51.192;7.024;2022-07-30T16:09:28;29.00;59.50
13405;DHT22;6773;51.192;7.024;2022-07-30T16:11:54;28.30;58.90
13405;DHT22;6773;51.192;7.024;2022-07-30T16:14:20;28.30;59.30
13405;DHT22;6773;51.192;7.024;2022-07-30T16:16:45;28.10;61.00
13405;DHT22;6773;51.192;7.024;2022-07-30T16:19:11;28.20;61.30
13405;DHT22;6773;51.192;7.024;2022-07-30T16:21:37;28.40;61.70
13405;DHT22;6773;51.192;7.024;2022-07-30T16:24:03;28.70;58.60
13405;DHT22;6773;51.192;7.024;2022-07-30T16:26:28;28.70;58.60
13405;DHT22;6773;51.192;7.024;2022-07-30T16:28:55;29.10;58.10
13405;DHT22;6773;51.192;7.024;2022-07-30T16:31:21;29.60;59.00
13405;DHT22;6773;51.192;7.024;2022-07-30T16:33:47;29.70;56.60
13405;DHT22;6773;51.192;7.024;2022-07-30T16:36:13;29.70;56.30
13405;DHT22;6773;51.192;7.024;2022-07-30T16:38:39;29.30;55.40
13405;DHT22;6773;51.192;7.024;2022-07-30T16:41:05;28.60;57.70
13405;DHT22;6773;51.192;7.024;2022-07-30T16:43:31;28.40;58.30
13405;DHT22;6773;51.192;7.024;2022-07-30T16:45:58;27.70;57.60
13405;DHT22;6773;51.192;7.024;2022-07-30T16:48:24;27.50;59.30
13405;DHT22;6773;51.192;7.024;2022-07-30T16:50:50;27.50;60.90
13405;DHT22;6773;51.192;7.024;2022-07-30T16:53:16;27.50;60.70
13405;DHT22;6773;51.192;7.024;2022-07-30T16:55:42;27.50;61.10
13405;DHT22;6773;51.192;7.024;2022-07-30T16:58:09;27.60;61.30
13405;DHT22;6773;51.192;7.024;2022-07-30T17:00:34;27.60;60.40
13405;DHT22;6773;51.192;7.024;2022-07-30T17:03:00;27.50;61.20
13405;DHT22;6773;51.192;7.024;2022-07-30T17:05:26;27.50;62.70
13405;DHT22;6773;51.192;7.024;2022-07-30T17:07:52;27.60;59.90
13405;DHT22;6773;51.192;7.024;2022-07-30T17:10:17;27.60;60.90
13405;DHT22;6773;51.192;7.024;2022-07-30T17:12:43;27.40;62.70
13405;DHT22;6773;51.192;7.024;2022-07-30T17:15:09;27.40;61.30
13405;DHT22;6773;51.192;7.024;2022-07-30T17:17:34;27.60;60.00
13405;DHT22;6773;51.192;7.024;2022-07-30T17:20:00;27.40;61.20
13405;DHT22;6773;51.192;7.024;2022-07-30T17:22:28;26.80;62.50
13405;DHT22;6773;51.192;7.024;2022-07-30T17:24:53;26.80;63.50
13405;DHT22;6773;51.192;7.024;2022-07-30T17:27:19;26.60;62.80
13405;DHT22;6773;51.192;7.024;2022-07-30T17:29:45;26.50;63.10
13405;DHT22;6773;51.192;7.024;2022-07-30T17:32:11;26.50;63.90
13405;DHT22;6773;51.192;7.024;2022-07-30T17:34:39;26.80;64.00
13405;DHT22;6773;51.192;7.024;2022-07-30T17:37:05;26.80;63.20
13405;DHT22;6773;51.192;7.024;2022-07-30T17:39:30;26.50;63.30
13405;DHT22;6773;51.192;7.024;2022-07-30T17:41:56;26.20;64.00
13405;DHT22;6773;51.192;7.024;2022-07-30T17:44:22;26.00;63.70
13405;DHT22;6773;51.192;7.024;2022-07-30T17:46:47;25.70;65.20
13405;DHT22;6773;51.192;7.024;2022-07-30T17:49:13;25.50;63.90
13405;DHT22;6773;51.192;7.024;2022-07-30T17:51:38;25.30;64.80
13405;DHT22;6773;51.192;7.024;2022-07-30T17:54:04;25.10;65.10
13405;DHT22;6773;51.192;7.024;2022-07-30T17:56:30;25.10;65.70
13405;DHT22;6773;51.192;7.024;2022-07-30T17:58:56;25.00;67.00
13405;DHT22;6773;51.192;7.024;2022-07-30T18:01:22;24.90;67.00
13405;DHT22;6773;51.192;7.024;2022-07-30T18:03:48;24.80;67.10
13405;DHT22;6773;51.192;7.024;2022-07-30T18:06:13;24.80;66.30